Time;durP1;ratioP1;P1;durP2;ratioP2;P2;SDS_P1;SDS_P2;PMS_P1;PMS_P2;Temp;Humidity;BMP_temperature;BMP_pressure;BME280_temperature;BME280_humidity;BME280_pressure;Samples;Min_cycle;Max_cycle;Signal;HPM_P1;HPM_P2
2023/07/28 00:02:15;;;;;;;21.13;6.85;;;;;;;;;;5055589;28;20628;-76
2023/07/28 00:04:41;;;;;;;19.08;7.38;;;;;;;;;;5055257;28;20025;-76
2023/07/28 00:07:07;;;;;;;21.00;7.28;;;;;;;;;;5053691;28;20488;-77
2023/07/28 00:09:33;;;;;;;17.98;6.53;;;;;;;;;;5055934;28;20021;-77
2023/07/28 00:12:00;;;;;;;24.73;7.30;;;;;;;;;;5055426;28;20043;-77
2023/07/28 00:14:26;;;;;;;24.35;7.68;;;;;;;;;;5055397;28;20056;-77
2023/07/28 00:16:53;;;;;;;25.92;8.15;;;;;;;;;;5054802;28;20021;-77
2023/07/28 00:19:26;;;;;;;21.30;7.85;;;;;;;;;;5055528;28;20017;-77
2023/07/28 00:21:53;;;;;;;21.00;7.32;;;;;;;;;;5056415;28;20056;-77
2023/07/28 00:24:19;;;;;;;27.38;8.02;;;;;;;;;;5056304;28;20029;-77
2023/07/28 00:26:45;;;;;;;23.67;7.63;;;;;;;;;;5054536;28;20029;-77
2023/07/28 00:29:11;;;;;;;24.17;7.30;;;;;;;;;;5054228;28;20029;-76
2023/07/28 00:31:37;;;;;;;23.25;7.40;;;;;;;;;;5054482;28;20028;-77
2023/07/28 00:34:03;;;;;;;19.40;7.07;;;;;;;;;;5054944;28;20442;-77
2023/07/28 00:36:30;;;;;;;25.05;7.03;;;;;;;;;;5054488;28;20083;-77
2023/07/28 00:38:56;;;;;;;29.98;6.78;;;;;;;;;;5054460;28;20367;-76
2023/07/28 00:41:22;;;;;;;22.58;6.18;;;;;;;;;;5054301;28;20464;-76
2023/07/28 00:43:48;;;;;;;20.98;5.97;;;;;;;;;;5054545;28;20112;-77
2023/07/28 00:46:14;;;;;;;21.80;6.00;;;;;;;;;;5054446;28;20067;-77
2023/07/28 00:48:41;;;;;;;22.58;5.47;;;;;;;;;;5054298;28;20025;-77
2023/07/28 00:51:07;;;;;;;24.13;5.53;;;;;;;;;;5054595;28;20033;-77
2023/07/28 00:53:33;;;;;;;17.95;5.35;;;;;;;;;;5054681;28;20057;-77
2023/07/28 00:56:00;;;;;;;15.60;4.90;;;;;;;;;;5053899;28;20048;-77
2023/07/28 00:58:26;;;;;;;18.83;5.18;;;;;;;;;;5054225;28;20025;-76
2023/07/28 01:00:52;;;;;;;17.70;4.70;;;;;;;;;;5053816;28;20399;-76
2023/07/28 01:03:26;;;;;;;19.40;4.28;;;;;;;;;;5053836;28;20029;-77
2023/07/28 01:06:06;;;;;;;18.48;4.28;;;;;;;;;;5053973;28;20025;-76
2023/07/28 01:08:32;;;;;;;21.25;4.53;;;;;;;;;;5033904;28;20057;-77
2023/07/28 01:10:58;;;;;;;20.52;4.70;;;;;;;;;;5048743;28;20048;-77
2023/07/28 01:13:24;;;;;;;20.05;4.63;;;;;;;;;;5053551;28;20048;-77
2023/07/28 01:15:50;;;;;;;19.70;3.97;;;;;;;;;;5052826;28;20110;-77
2023/07/28 01:18:16;;;;;;;19.42;4.30;;;;;;;;;;5053354;28;20485;-77
2023/07/28 01:20:45;;;;;;;19.13;3.80;;;;;;;;;;5047718;28;20032;-77
2023/07/28 01:23:11;;;;;;;22.02;3.92;;;;;;;;;;5054742;28;20063;-77
2023/07/28 01:26:00;;;;;;;23.33;4.43;;;;;;;;;;5053636;28;20419;-77
2023/07/28 01:28:26;;;;;;;21.65;4.47;;;;;;;;;;5052992;28;20056;-77
2023/07/28 01:30:52;;;;;;;21.40;4.25;;;;;;;;;;5053008;28;20091;-77
2023/07/28 01:33:21;;;;;;;20.83;4.57;;;;;;;;;;5050561;28;20032;-77
2023/07/28 01:35:47;;;;;;;22.00;4.05;;;;;;;;;;5053189;28;20021;-77
2023/07/28 01:38:13;;;;;;;20.42;4.47;;;;;;;;;;5044602;28;20096;-77
2023/07/28 01:40:39;;;;;;;21.80;4.43;;;;;;;;;;5032986;28;20067;-77
2023/07/28 01:43:05;;;;;;;22.00;4.95;;;;;;;;;;5032761;28;20057;-77
2023/07/28 01:45:31;;;;;;;20.05;4.45;;;;;;;;;;5032750;28;20474;-77
2023/07/28 01:47:57;;;;;;;14.73;4.00;;;;;;;;;;5032933;28;20388;-77
2023/07/28 01:50:23;;;;;;;24.20;4.50;;;;;;;;;;5045764;28;20021;-77
2023/07/28 01:52:49;;;;;;;24.50;4.78;;;;;;;;;;5042399;28;20029;-77
2023/07/28 01:55:16;;;;;;;22.00;4.60;;;;;;;;;;5049201;28;20025;-77
2023/07/28 01:57:50;;;;;;;22.45;4.32;;;;;;;;;;5032716;28;20057;-77
2023/07/28 02:00:16;;;;;;;21.98;4.10;;;;;;;;;;5050602;28;20583;-77
2023/07/28 02:02:42;;;;;;;21.20;4.30;;;;;;;;;;5052823;28;20036;-77
2023/07/28 02:05:08;;;;;;;19.42;4.10;;;;;;;;;;5052939;28;20025;-77
2023/07/28 02:07:34;;;;;;;18.48;4.45;;;;;;;;;;5052701;28;20060;-76
2023/07/28 02:10:00;;;;;;;17.60;3.85;;;;;;;;;;5052782;28;20020;-77
2023/07/28 02:12:26;;;;;;;15.68;4.05;;;;;;;;;;5052677;28;20061;-77
2023/07/28 02:14:52;;;;;;;22.00;4.10;;;;;;;;;;5052527;28;20044;-76
2023/07/28 02:17:18;;;;;;;20.50;4.10;;;;;;;;;;5052450;28;20033;-77
2023/07/28 02:19:44;;;;;;;16.63;3.72;;;;;;;;;;5042338;28;20025;-77
2023/07/28 02:22:11;;;;;;;11.50;3.65;;;;;;;;;;5033287;28;20104;-77
2023/07/28 02:24:37;;;;;;;14.63;3.75;;;;;;;;;;5043506;28;20032;-76
2023/07/28 02:27:03;;;;;;;15.43;3.90;;;;;;;;;;5052337;28;20036;-77
2023/07/28 02:29:29;;;;;;;21.48;5.10;;;;;;;;;;5055681;28;20037;-77
2023/07/28 02:31:55;;;;;;;20.17;4.55;;;;;;;;;;5054987;28;20025;-77
2023/07/28 02:34:21;;;;;;;18.10;4.00;;;;;;;;;;5056271;28;20052;-76
2023/07/28 02:36:47;;;;;;;11.85;3.70;;;;;;;;;;5056249;28;20060;-77
2023/07/28 02:39:13;;;;;;;17.10;3.70;;;;;;;;;;5045492;28;20112;-77
2023/07/28 02:41:39;;;;;;;14.85;3.90;;;;;;;;;;5052686;28;20571;-76
2023/07/28 02:44:05;;;;;;;13.38;4.05;;;;;;;;;;5056180;28;20025;-76
2023/07/28 02:46:31;;;;;;;15.05;3.20;;;;;;;;;;5056275;28;20116;-76
2023/07/28 02:48:57;;;;;;;12.57;3.25;;;;;;;;;;5056109;28;20682;-77
2023/07/28 02:51:23;;;;;;;18.00;3.83;;;;;;;;;;5056523;28;20147;-76
2023/07/28 02:53:49;;;;;;;15.50;4.35;;;;;;;;;;5056379;28;20029;-77
2023/07/28 02:56:15;;;;;;;15.43;3.40;;;;;;;;;;5055967;28;20555;-76
2023/07/28 02:58:41;;;;;;;16.45;4.28;;;;;;;;;;5056081;28;20475;-76
2023/07/28 03:01:07;;;;;;;12.13;3.83;;;;;;;;;;5055943;28;20025;-77
2023/07/28 03:03:33;;;;;;;17.88;4.40;;;;;;;;;;5056115;28;20025;-77
2023/07/28 03:05:59;;;;;;;14.32;4.13;;;;;;;;;;5055799;28;20070;-77
2023/07/28 03:08:25;;;;;;;17.10;4.55;;;;;;;;;;5055047;28;20179;-77
2023/07/28 03:10:57;;;;;;;8.13;3.60;;;;;;;;;;5055856;28;20034;-77
2023/07/28 03:13:23;;;;;;;10.05;3.50;;;;;;;;;;5055894;28;20044;-77
2023/07/28 03:15:48;;;;;;;11.25;3.88;;;;;;;;;;5055366;28;20518;-77
2023/07/28 03:18:14;;;;;;;12.00;3.80;;;;;;;;;;5055459;28;20187;-77
2023/07/28 03:20:42;;;;;;;12.15;3.95;;;;;;;;;;5055668;28;20040;-77
2023/07/28 03:23:07;;;;;;;7.80;4.00;;;;;;;;;;5056130;28;20029;-76
2023/07/28 03:25:33;;;;;;;9.15;3.05;;;;;;;;;;5055544;28;20066;-76
2023/07/28 03:28:00;;;;;;;7.70;3.30;;;;;;;;;;5055135;28;20040;-76
2023/07/28 03:30:25;;;;;;;8.80;3.20;;;;;;;;;;5055188;28;20021;-77
2023/07/28 03:32:51;;;;;;;9.43;3.17;;;;;;;;;;5055139;28;20025;-77
2023/07/28 03:35:17;;;;;;;7.90;2.83;;;;;;;;;;5050032;28;20064;-77
2023/07/28 03:37:43;;;;;;;8.43;3.25;;;;;;;;;;5035399;28;20064;-77
2023/07/28 03:40:10;;;;;;;11.70;3.40;;;;;;;;;;5039324;28;20363;-76
2023/07/28 03:42:36;;;;;;;12.18;2.95;;;;;;;;;;5054837;28;20025;-76
2023/07/28 03:45:02;;;;;;;8.25;3.20;;;;;;;;;;5054997;28;20056;-77
2023/07/28 03:47:28;;;;;;;10.90;3.28;;;;;;;;;;5055388;28;20108;-77
2023/07/28 03:49:54;;;;;;;13.02;3.45;;;;;;;;;;5055152;28;20060;-77
2023/07/28 03:52:20;;;;;;;9.90;3.33;;;;;;;;;;5055209;28;20021;-77
2023/07/28 03:54:46;;;;;;;9.35;3.83;;;;;;;;;;5055076;28;20067;-77
2023/07/28 03:57:12;;;;;;;8.55;3.35;;;;;;;;;;5054853;28;20075;-76
2023/07/28 03:59:38;;;;;;;8.57;3.13;;;;;;;;;;5054664;28;20032;-76
2023/07/28 04:02:04;;;;;;;11.55;3.70;;;;;;;;;;5054572;28;20133;-77
2023/07/28 04:04:30;;;;;;;9.48;3.83;;;;;;;;;;5054794;28;20021;-76
2023/07/28 04:06:56;;;;;;;10.80;3.50;;;;;;;;;;5054558;28;20380;-77
2023/07/28 04:09:22;;;;;;;9.43;4.20;;;;;;;;;;5054241;28;20029;-77
2023/07/28 04:11:48;;;;;;;12.00;4.80;;;;;;;;;;5054142;28;20029;-77
2023/07/28 04:14:14;;;;;;;9.48;4.07;;;;;;;;;;5054291;28;20475;-77
2023/07/28 04:16:41;;;;;;;11.35;5.00;;;;;;;;;;5054442;28;20029;-77
2023/07/28 04:19:07;;;;;;;7.57;4.80;;;;;;;;;;5054347;28;20541;-77
2023/07/28 04:21:33;;;;;;;7.00;5.30;;;;;;;;;;5054323;28;20032;-77
2023/07/28 04:23:59;;;;;;;10.77;5.70;;;;;;;;;;5054488;28;20028;-77
2023/07/28 04:26:25;;;;;;;10.35;5.13;;;;;;;;;;5053987;28;20021;-76
2023/07/28 04:28:51;;;;;;;9.40;5.75;;;;;;;;;;5053825;28;20025;-77
2023/07/28 04:31:17;;;;;;;10.07;6.72;;;;;;;;;;5053871;28;20056;-77
2023/07/28 04:33:43;;;;;;;12.27;6.32;;;;;;;;;;5053935;28;20061;-77
2023/07/28 04:36:10;;;;;;;11.07;6.75;;;;;;;;;;5053917;28;20079;-77
2023/07/28 04:38:36;;;;;;;16.70;7.75;;;;;;;;;;5053732;28;20384;-77
2023/07/28 04:41:02;;;;;;;12.60;7.63;;;;;;;;;;5053642;28;20112;-77
2023/07/28 04:43:28;;;;;;;10.18;7.40;;;;;;;;;;5034910;28;20108;-77
2023/07/28 04:45:55;;;;;;;12.13;7.57;;;;;;;;;;5033708;28;20036;-77
2023/07/28 04:48:21;;;;;;;15.45;8.07;;;;;;;;;;5033735;28;20384;-77
2023/07/28 04:50:47;;;;;;;10.32;7.32;;;;;;;;;;5033034;28;20535;-77
2023/07/28 04:53:13;;;;;;;8.30;6.55;;;;;;;;;;5033701;28;20036;-77
2023/07/28 04:55:39;;;;;;;11.70;6.55;;;;;;;;;;5045489;28;20025;-77
2023/07/28 04:58:05;;;;;;;10.77;6.95;;;;;;;;;;5053841;28;20036;-77
2023/07/28 05:00:31;;;;;;;12.38;7.18;;;;;;;;;;5053725;28;20025;-77
2023/07/28 05:02:56;;;;;;;12.98;7.75;;;;;;;;;;5053616;28;20123;-77
2023/07/28 05:05:23;;;;;;;11.23;7.82;;;;;;;;;;5053595;28;20548;-77
2023/07/28 05:07:49;;;;;;;12.13;7.75;;;;;;;;;;5052263;28;20103;-77
2023/07/28 05:10:15;;;;;;;14.98;8.73;;;;;;;;;;5053428;28;20483;-77
2023/07/28 05:12:41;;;;;;;11.85;8.60;;;;;;;;;;5053458;28;20159;-77
2023/07/28 05:15:10;;;;;;;13.77;8.43;;;;;;;;;;5053324;28;20468;-77
2023/07/28 05:17:36;;;;;;;16.70;9.33;;;;;;;;;;5053365;28;20114;-77
2023/07/28 05:20:02;;;;;;;15.50;8.70;;;;;;;;;;5053357;28;20036;-77
2023/07/28 05:22:28;;;;;;;12.00;8.70;;;;;;;;;;5053811;28;20072;-77
2023/07/28 05:24:54;;;;;;;15.20;9.23;;;;;;;;;;5052997;28;20521;-77
2023/07/28 05:27:20;;;;;;;12.70;8.93;;;;;;;;;;5052961;28;20039;-77
2023/07/28 05:29:46;;;;;;;13.20;9.18;;;;;;;;;;5041026;28;20480;-76
2023/07/28 05:32:13;;;;;;;13.77;9.18;;;;;;;;;;5033105;28;20104;-77
2023/07/28 05:34:42;;;;;;;10.70;8.35;;;;;;;;;;5033920;28;20057;-77
2023/07/28 05:37:08;;;;;;;12.57;8.77;;;;;;;;;;5033887;28;20108;-77
2023/07/28 05:39:34;;;;;;;14.90;8.77;;;;;;;;;;5047666;28;20419;-77
2023/07/28 05:42:00;;;;;;;14.10;8.45;;;;;;;;;;5052112;28;20033;-76
2023/07/28 05:44:26;;;;;;;10.82;8.85;;;;;;;;;;5052305;28;20107;-77
2023/07/28 05:46:52;;;;;;;11.50;9.23;;;;;;;;;;5052584;28;20078;-76
2023/07/28 05:49:18;;;;;;;15.07;10.23;;;;;;;;;;5052354;28;20025;-76
2023/07/28 05:51:44;;;;;;;12.90;9.95;;;;;;;;;;5052356;28;20090;-76
2023/07/28 05:54:12;;;;;;;12.85;9.05;;;;;;;;;;5052226;28;20108;-76
2023/07/28 05:56:38;;;;;;;12.45;8.95;;;;;;;;;;5052550;28;20483;-77
2023/07/28 05:59:04;;;;;;;15.02;11.02;;;;;;;;;;5052327;28;20021;-77
2023/07/28 06:01:31;;;;;;;17.08;11.60;;;;;;;;;;5052294;28;20090;-77
2023/07/28 06:03:59;;;;;;;16.33;11.10;;;;;;;;;;5052139;28;20498;-77
2023/07/28 06:06:25;;;;;;;14.85;10.27;;;;;;;;;;5050883;28;20025;-77
2023/07/28 06:08:52;;;;;;;12.20;10.10;;;;;;;;;;5051369;28;20041;-77
2023/07/28 06:11:18;;;;;;;13.82;10.73;;;;;;;;;;5052399;28;20025;-77
2023/07/28 06:13:46;;;;;;;13.77;10.50;;;;;;;;;;5052412;28;20053;-77
2023/07/28 06:16:12;;;;;;;14.30;10.48;;;;;;;;;;5052409;28;20021;-77
2023/07/28 06:18:38;;;;;;;9.95;7.72;;;;;;;;;;5052210;28;20047;-77
2023/07/28 06:21:04;;;;;;;10.82;8.20;;;;;;;;;;5052241;28;20046;-77
2023/07/28 06:23:30;;;;;;;12.20;8.77;;;;;;;;;;5052416;28;20033;-77
2023/07/28 06:25:56;;;;;;;13.23;10.05;;;;;;;;;;5052046;28;20040;-77
2023/07/28 06:28:22;;;;;;;10.43;8.82;;;;;;;;;;5052266;28;20159;-77
2023/07/28 06:30:48;;;;;;;10.20;8.63;;;;;;;;;;5053053;28;20075;-77
2023/07/28 06:33:14;;;;;;;10.60;7.78;;;;;;;;;;5052864;28;20029;-77
2023/07/28 06:35:40;;;;;;;8.98;7.57;;;;;;;;;;5051895;28;20483;-77
2023/07/28 06:38:06;;;;;;;9.15;7.13;;;;;;;;;;5051957;28;20035;-77
2023/07/28 06:40:32;;;;;;;11.50;8.52;;;;;;;;;;5051856;28;20017;-77
2023/07/28 06:42:58;;;;;;;11.60;8.60;;;;;;;;;;5050776;28;20033;-77
2023/07/28 06:45:24;;;;;;;11.20;9.23;;;;;;;;;;5031889;28;20033;-77
2023/07/28 06:47:51;;;;;;;10.98;8.18;;;;;;;;;;5030476;28;20042;-77
2023/07/28 06:50:17;;;;;;;9.23;8.30;;;;;;;;;;5049408;28;20025;-77
2023/07/28 06:52:43;;;;;;;11.20;8.85;;;;;;;;;;5051764;28;20036;-77
2023/07/28 06:55:09;;;;;;;12.05;8.52;;;;;;;;;;5036953;28;20447;-77
2023/07/28 06:57:35;;;;;;;12.05;9.98;;;;;;;;;;5032128;28;20075;-77
2023/07/28 07:00:01;;;;;;;10.85;8.35;;;;;;;;;;5047527;28;20021;-77
2023/07/28 07:02:27;;;;;;;12.63;9.15;;;;;;;;;;5051550;28;20052;-77
2023/07/28 07:04:53;;;;;;;13.85;9.07;;;;;;;;;;5051690;28;20036;-77
2023/07/28 07:07:19;;;;;;;15.60;9.52;;;;;;;;;;5051376;28;20770;-77
2023/07/28 07:09:45;;;;;;;14.85;8.60;;;;;;;;;;5051602;28;20032;-77
2023/07/28 07:12:11;;;;;;;11.70;9.23;;;;;;;;;;5051909;28;20134;-77
2023/07/28 07:14:38;;;;;;;14.32;9.30;;;;;;;;;;5034539;28;20131;-77
2023/07/28 07:17:04;;;;;;;11.43;9.30;;;;;;;;;;5035455;28;20787;-77
2023/07/28 07:19:30;;;;;;;11.27;8.73;;;;;;;;;;5040659;28;20021;-77
2023/07/28 07:21:56;;;;;;;12.95;9.10;;;;;;;;;;5054722;28;20048;-77
2023/07/28 07:24:23;;;;;;;9.77;7.82;;;;;;;;;;5054948;28;20096;-77
2023/07/28 07:26:48;;;;;;;11.85;8.98;;;;;;;;;;5056169;28;20502;-77
2023/07/28 07:29:14;;;;;;;10.70;9.00;;;;;;;;;;5055523;28;20064;-77
2023/07/28 07:31:40;;;;;;;11.30;8.88;;;;;;;;;;5056143;28;20029;-77
2023/07/28 07:34:06;;;;;;;8.55;7.55;;;;;;;;;;5055310;28;20044;-76
2023/07/28 07:36:33;;;;;;;9.88;8.30;;;;;;;;;;5055502;28;20029;-76
2023/07/28 07:38:59;;;;;;;8.10;7.25;;;;;;;;;;5048419;28;20433;-76
2023/07/28 07:41:25;;;;;;;9.45;6.97;;;;;;;;;;5035631;28;20018;-76
2023/07/28 07:43:53;;;;;;;9.10;7.40;;;;;;;;;;5035447;28;20029;-76
2023/07/28 07:46:19;;;;;;;7.75;6.95;;;;;;;;;;5035416;28;20075;-77
2023/07/28 07:48:45;;;;;;;7.35;6.47;;;;;;;;;;5035006;28;20033;-76
2023/07/28 07:51:12;;;;;;;6.38;5.63;;;;;;;;;;5035015;28;20048;-77
2023/07/28 07:53:38;;;;;;;6.10;5.50;;;;;;;;;;5039438;28;20051;-77
2023/07/28 07:56:04;;;;;;;5.15;4.65;;;;;;;;;;5035960;28;20025;-77
2023/07/28 07:58:31;;;;;;;6.00;5.15;;;;;;;;;;5034715;28;20029;-77
2023/07/28 08:00:57;;;;;;;5.75;5.15;;;;;;;;;;5035498;28;20460;-77
2023/07/28 08:03:23;;;;;;;5.00;4.50;;;;;;;;;;5041424;28;20068;-78
2023/07/28 08:05:50;;;;;;;5.57;4.57;;;;;;;;;;5054964;28;20109;-78
2023/07/28 08:08:17;;;;;;;4.55;3.60;;;;;;;;;;5039658;28;20053;-78
2023/07/28 08:10:43;;;;;;;4.72;3.65;;;;;;;;;;5054682;28;20378;-78
2023/07/28 08:13:09;;;;;;;4.15;3.60;;;;;;;;;;5055108;28;20035;-78
2023/07/28 08:15:35;;;;;;;3.90;3.50;;;;;;;;;;5074573;28;20032;-78
2023/07/28 08:18:01;;;;;;;4.47;3.70;;;;;;;;;;5074542;28;20029;-78
2023/07/28 08:20:27;;;;;;;3.97;3.20;;;;;;;;;;5058537;28;20094;-77
2023/07/28 08:22:53;;;;;;;3.15;2.85;;;;;;;;;;5054205;28;20071;-77
2023/07/28 08:25:19;;;;;;;3.17;2.75;;;;;;;;;;5054472;28;20071;-77
2023/07/28 08:27:45;;;;;;;3.40;2.78;;;;;;;;;;5053918;28;20128;-78
2023/07/28 08:30:11;;;;;;;3.90;2.75;;;;;;;;;;5053897;28;21621;-77
2023/07/28 08:32:38;;;;;;;3.30;3.00;;;;;;;;;;5053880;28;20162;-77
2023/07/28 08:35:04;;;;;;;4.88;3.50;;;;;;;;;;5054283;28;20021;-78
2023/07/28 08:37:30;;;;;;;3.15;2.83;;;;;;;;;;5053903;28;20059;-77
2023/07/28 08:39:57;;;;;;;2.50;2.40;;;;;;;;;;5053607;28;20029;-76
2023/07/28 08:42:23;;;;;;;2.28;2.08;;;;;;;;;;5053723;28;20025;-76
2023/07/28 08:44:52;;;;;;;2.25;2.10;;;;;;;;;;5053584;28;20369;-76
2023/07/28 08:47:18;;;;;;;3.42;2.40;;;;;;;;;;5054073;28;20112;-76
2023/07/28 08:49:44;;;;;;;3.03;2.38;;;;;;;;;;5053695;28;20154;-76
2023/07/28 08:52:12;;;;;;;3.55;2.50;;;;;;;;;;5054309;28;20047;-77
2023/07/28 08:54:39;;;;;;;2.65;1.90;;;;;;;;;;5057275;28;20025;-77
2023/07/28 08:57:06;;;;;;;3.65;1.77;;;;;;;;;;5055916;28;20049;-77
2023/07/28 08:59:32;;;;;;;2.15;1.92;;;;;;;;;;5053906;28;20029;-76
2023/07/28 09:01:59;;;;;;;2.95;2.15;;;;;;;;;;5054848;28;20025;-77
2023/07/28 09:04:25;;;;;;;2.58;2.13;;;;;;;;;;5054431;28;20019;-77
2023/07/28 09:06:51;;;;;;;2.42;2.20;;;;;;;;;;5052311;28;20053;-77
2023/07/28 09:09:19;;;;;;;2.90;2.42;;;;;;;;;;5041943;28;20079;-77
2023/07/28 09:11:46;;;;;;;3.28;2.88;;;;;;;;;;5037554;28;20025;-77
2023/07/28 09:14:13;;;;;;;3.05;2.60;;;;;;;;;;5052993;28;20052;-77
2023/07/28 09:16:39;;;;;;;3.08;2.80;;;;;;;;;;5053053;28;20108;-77
2023/07/28 09:19:06;;;;;;;3.67;3.03;;;;;;;;;;5053040;28;20025;-77
2023/07/28 09:21:33;;;;;;;3.38;2.90;;;;;;;;;;5052846;28;20059;-77
2023/07/28 09:24:05;;;;;;;4.88;3.20;;;;;;;;;;5052970;28;20027;-77
2023/07/28 09:26:38;;;;;;;3.97;2.72;;;;;;;;;;5052961;28;20365;-77
2023/07/28 09:29:20;;;;;;;3.45;2.97;;;;;;;;;;5052634;28;20029;-77
2023/07/28 09:31:47;;;;;;;4.03;2.78;;;;;;;;;;5052751;28;20063;-77
2023/07/28 09:34:13;;;;;;;3.17;2.80;;;;;;;;;;5052583;28;20029;-77
2023/07/28 09:36:40;;;;;;;4.43;2.70;;;;;;;;;;5052609;28;20095;-77
2023/07/28 09:39:09;;;;;;;6.28;3.00;;;;;;;;;;5052432;28;20059;-77
2023/07/28 09:41:39;;;;;;;2.70;2.50;;;;;;;;;;5039172;28;20104;-77
2023/07/28 09:44:06;;;;;;;2.80;2.58;;;;;;;;;;5052247;28;20031;-76
2023/07/28 09:46:37;;;;;;;2.63;2.42;;;;;;;;;;5052383;28;20025;-77
2023/07/28 09:49:10;;;;;;;3.17;2.22;;;;;;;;;;5052496;28;20029;-77
2023/07/28 09:51:36;;;;;;;3.20;2.15;;;;;;;;;;5053216;28;20025;-77
2023/07/28 09:54:06;;;;;;;3.22;2.35;;;;;;;;;;5052826;28;20049;-77
2023/07/28 09:56:33;;;;;;;3.65;2.10;;;;;;;;;;5052230;28;20051;-77
2023/07/28 09:58:59;;;;;;;2.65;2.00;;;;;;;;;;5052257;28;20021;-77
2023/07/28 10:01:26;;;;;;;3.95;2.20;;;;;;;;;;5052180;28;20024;-77
2023/07/28 10:03:52;;;;;;;2.13;1.92;;;;;;;;;;5051805;28;20025;-77
2023/07/28 10:06:19;;;;;;;2.30;2.10;;;;;;;;;;5051646;28;20029;-77
2023/07/28 10:08:45;;;;;;;3.20;2.13;;;;;;;;;;5042029;28;20053;-77
2023/07/28 10:11:15;;;;;;;2.67;2.20;;;;;;;;;;5039070;28;20096;-76
2023/07/28 10:13:46;;;;;;;1.92;1.75;;;;;;;;;;5052693;28;20021;-76
2023/07/28 10:16:14;;;;;;;3.08;2.33;;;;;;;;;;5052369;28;20107;-76
2023/07/28 10:18:40;;;;;;;4.23;2.17;;;;;;;;;;5053911;28;20235;-76
2023/07/28 10:21:08;;;;;;;2.17;1.98;;;;;;;;;;5052701;28;20257;-78
2023/07/28 10:23:36;;;;;;;2.92;1.88;;;;;;;;;;5051659;28;20048;-77
2023/07/28 10:26:05;;;;;;;3.47;1.80;;;;;;;;;;5052568;28;20021;-77
2023/07/28 10:28:38;;;;;;;2.67;2.10;;;;;;;;;;5052189;28;20521;-77
2023/07/28 10:31:06;;;;;;;3.72;2.20;;;;;;;;;;5039381;28;20096;-77
2023/07/28 10:33:32;;;;;;;2.10;1.90;;;;;;;;;;5052250;28;20029;-77
2023/07/28 10:35:59;;;;;;;2.00;1.90;;;;;;;;;;5051952;28;20024;-77
2023/07/28 10:38:31;;;;;;;2.38;2.17;;;;;;;;;;5052287;28;20029;-77
2023/07/28 10:41:07;;;;;;;2.65;2.25;;;;;;;;;;5052446;28;20096;-78
2023/07/28 10:43:33;;;;;;;3.10;1.88;;;;;;;;;;5046532;28;20029;-77
2023/07/28 10:46:00;;;;;;;2.35;2.15;;;;;;;;;;5047662;28;20353;-78
2023/07/28 10:48:26;;;;;;;2.08;1.90;;;;;;;;;;5051702;28;20499;-77
2023/07/28 10:50:52;;;;;;;7.40;2.30;;;;;;;;;;5055161;28;20021;-77
2023/07/28 10:53:18;;;;;;;2.22;1.80;;;;;;;;;;5055693;28;20013;-78
2023/07/28 10:55:44;;;;;;;1.70;1.60;;;;;;;;;;5056055;28;20025;-78
2023/07/28 10:58:10;;;;;;;2.67;1.80;;;;;;;;;;5058123;28;20041;-78
2023/07/28 11:00:43;;;;;;;3.47;1.63;;;;;;;;;;5057961;28;20526;-78
2023/07/28 11:03:10;;;;;;;1.98;1.77;;;;;;;;;;5059317;28;20399;-79
2023/07/28 11:05:37;;;;;;;2.28;1.50;;;;;;;;;;5058720;28;20025;-78
2023/07/28 11:08:03;;;;;;;2.35;1.67;;;;;;;;;;5058349;28;20477;-79
2023/07/28 11:10:30;;;;;;;1.58;1.30;;;;;;;;;;5061166;28;20560;-78
2023/07/28 11:12:58;;;;;;;2.75;1.52;;;;;;;;;;5058380;28;20051;-78
2023/07/28 11:15:25;;;;;;;3.15;2.38;;;;;;;;;;5055716;28;20073;-78
2023/07/28 11:17:52;;;;;;;1.98;1.75;;;;;;;;;;5055771;28;20037;-78
2023/07/28 11:20:19;;;;;;;2.13;1.90;;;;;;;;;;5040746;28;20087;-78
2023/07/28 11:22:46;;;;;;;3.28;2.40;;;;;;;;;;5037382;28;20718;-78
2023/07/28 11:25:12;;;;;;;2.10;1.77;;;;;;;;;;5058789;28;20021;-78
2023/07/28 11:27:39;;;;;;;4.03;2.88;;;;;;;;;;5058133;28;20024;-78
2023/07/28 11:30:09;;;;;;;4.18;2.25;;;;;;;;;;5057091;28;20017;-78
2023/07/28 11:32:35;;;;;;;2.45;2.00;;;;;;;;;;5056747;28;20495;-77
2023/07/28 11:35:09;;;;;;;3.13;2.67;;;;;;;;;;5055032;28;20025;-76
2023/07/28 11:37:35;;;;;;;2.85;2.55;;;;;;;;;;5056154;28;20086;-77
2023/07/28 11:40:02;;;;;;;4.43;3.10;;;;;;;;;;5055080;28;20467;-78
2023/07/28 11:42:29;;;;;;;2.95;2.50;;;;;;;;;;5055243;28;20017;-78
2023/07/28 11:44:56;;;;;;;4.20;2.40;;;;;;;;;;5055234;28;20036;-78
2023/07/28 11:47:22;;;;;;;3.00;2.40;;;;;;;;;;5055074;28;20609;-78
2023/07/28 11:49:48;;;;;;;2.67;2.20;;;;;;;;;;5054881;28;20468;-77
2023/07/28 11:52:18;;;;;;;3.40;2.50;;;;;;;;;;5054917;28;20147;-78
2023/07/28 11:54:44;;;;;;;;;;;;;;;;;;5055580;28;20032;-78
2023/07/28 11:57:10;;;;;;;4.40;3.38;;;;;;;;;;5056467;28;19904;-77
2023/07/28 11:59:36;;;;;;;2.90;2.55;;;;;;;;;;5055566;28;20031;-77
2023/07/28 12:02:07;;;;;;;4.30;3.20;;;;;;;;;;5056871;28;20056;-78
2023/07/28 12:04:39;;;;;;;3.63;2.45;;;;;;;;;;5058541;28;20032;-78
2023/07/28 12:07:07;;;;;;;3.30;2.92;;;;;;;;;;5057418;28;20029;-79
2023/07/28 12:09:46;;;;;;;4.93;3.58;;;;;;;;;;5060097;28;20064;-78
2023/07/28 12:12:12;;;;;;;4.47;3.28;;;;;;;;;;5058266;28;20029;-78
2023/07/28 12:14:38;;;;;;;3.08;2.78;;;;;;;;;;5049980;28;20053;-78
2023/07/28 12:17:12;;;;;;;5.00;3.13;;;;;;;;;;5060985;28;20037;-78
2023/07/28 12:19:57;;;;;;;3.53;3.22;;;;;;;;;;5055746;28;20044;-78
2023/07/28 12:22:23;;;;;;;3.47;2.80;;;;;;;;;;5059325;28;20029;-78
2023/07/28 12:24:57;;;;;;;3.88;3.13;;;;;;;;;;5061498;28;20025;-78
2023/07/28 12:27:24;;;;;;;3.92;3.15;;;;;;;;;;5059906;28;20594;-78
2023/07/28 12:29:53;;;;;;;3.67;3.38;;;;;;;;;;5056784;28;20384;-78
2023/07/28 12:32:19;;;;;;;4.45;3.00;;;;;;;;;;5042788;28;20044;-78
2023/07/28 12:34:45;;;;;;;3.75;3.45;;;;;;;;;;5051804;28;20124;-78
2023/07/28 12:37:11;;;;;;;4.03;3.25;;;;;;;;;;5058729;28;20495;-78
2023/07/28 12:39:41;;;;;;;6.05;4.07;;;;;;;;;;5054852;28;20104;-78
2023/07/28 12:42:07;;;;;;;5.82;3.78;;;;;;;;;;5036848;28;20026;-77
2023/07/28 12:44:34;;;;;;;3.60;3.22;;;;;;;;;;5049893;28;20479;-78
2023/07/28 12:47:00;;;;;;;5.20;4.57;;;;;;;;;;5056207;28;20032;-78
2023/07/28 12:49:28;;;;;;;5.28;4.18;;;;;;;;;;5056130;28;20064;-78
2023/07/28 12:51:54;;;;;;;5.90;4.38;;;;;;;;;;5054896;28;20028;-78
2023/07/28 12:54:21;;;;;;;6.95;4.70;;;;;;;;;;5058249;28;20021;-78
2023/07/28 12:56:48;;;;;;;5.25;4.03;;;;;;;;;;5058376;28;20025;-78
2023/07/28 12:59:14;;;;;;;5.03;4.25;;;;;;;;;;5042661;28;20024;-79
2023/07/28 13:01:40;;;;;;;4.15;3.50;;;;;;;;;;5037960;28;20037;-78
2023/07/28 13:04:06;;;;;;;3.88;3.08;;;;;;;;;;5039833;28;20494;-78
2023/07/28 13:06:33;;;;;;;5.28;4.03;;;;;;;;;;5056680;28;20048;-78
2023/07/28 13:08:59;;;;;;;9.15;3.95;;;;;;;;;;5055326;28;20132;-78
2023/07/28 13:11:25;;;;;;;5.28;3.47;;;;;;;;;;5055881;28;20056;-78
2023/07/28 13:13:51;;;;;;;4.63;3.78;;;;;;;;;;5055662;28;20083;-78
2023/07/28 13:16:17;;;;;;;5.25;3.75;;;;;;;;;;5058453;28;20053;-78
2023/07/28 13:18:44;;;;;;;5.55;3.90;;;;;;;;;;5058979;28;20040;-78
2023/07/28 13:21:10;;;;;;;3.70;3.40;;;;;;;;;;5059593;28;20013;-78
2023/07/28 13:23:37;;;;;;;3.95;3.65;;;;;;;;;;5059437;28;20025;-79
2023/07/28 13:26:06;;;;;;;4.00;3.60;;;;;;;;;;5054453;28;20078;-79
2023/07/28 13:28:32;;;;;;;4.80;3.90;;;;;;;;;;5063857;28;20029;-79
2023/07/28 13:30:58;;;;;;;6.68;4.65;;;;;;;;;;5066281;28;20119;-79
2023/07/28 13:33:24;;;;;;;6.30;4.10;;;;;;;;;;5063967;28;20022;-78
2023/07/28 13:35:58;;;;;;;5.45;4.50;;;;;;;;;;5060290;28;20115;-78
2023/07/28 13:38:24;;;;;;;6.68;4.85;;;;;;;;;;5061406;28;20033;-78
2023/07/28 13:40:50;;;;;;;4.45;4.05;;;;;;;;;;5055358;28;20048;-78
2023/07/28 13:43:16;;;;;;;3.13;2.70;;;;;;;;;;5055581;28;20079;-78
2023/07/28 13:45:42;;;;;;;2.72;2.53;;;;;;;;;;5055720;28;20472;-78
2023/07/28 13:48:08;;;;;;;3.60;3.30;;;;;;;;;;5037468;28;20034;-78
2023/07/28 13:50:34;;;;;;;3.83;3.25;;;;;;;;;;5034661;28;20104;-78
2023/07/28 13:53:00;;;;;;;4.75;3.60;;;;;;;;;;5035924;28;20105;-79
2023/07/28 13:55:26;;;;;;;4.72;3.90;;;;;;;;;;5035753;28;20048;-79
2023/07/28 13:57:52;;;;;;;3.58;3.28;;;;;;;;;;5044701;28;20476;-79
2023/07/28 14:00:18;;;;;;;4.55;3.47;;;;;;;;;;5054801;28;20024;-79
2023/07/28 14:02:44;;;;;;;4.47;3.78;;;;;;;;;;5054755;28;20021;-79
2023/07/28 14:05:10;;;;;;;4.95;3.40;;;;;;;;;;5056928;28;20025;-79
2023/07/28 14:07:36;;;;;;;5.20;4.10;;;;;;;;;;5056774;28;20048;-79
2023/07/28 14:10:03;;;;;;;3.95;3.55;;;;;;;;;;5055845;28;20078;-79
2023/07/28 14:12:29;;;;;;;5.00;4.55;;;;;;;;;;5057348;28;20032;-79
2023/07/28 14:14:55;;;;;;;4.95;3.92;;;;;;;;;;5059920;28;20025;-79
2023/07/28 14:17:24;;;;;;;4.03;3.55;;;;;;;;;;5055581;28;20033;-79
2023/07/28 14:19:50;;;;;;;5.55;4.53;;;;;;;;;;5058580;28;20028;-79
2023/07/28 14:22:16;;;;;;;5.88;4.50;;;;;;;;;;5055237;28;20025;-79
2023/07/28 14:24:42;;;;;;;6.10;3.67;;;;;;;;;;5059419;28;20475;-79
2023/07/28 14:27:08;;;;;;;5.80;4.30;;;;;;;;;;5062220;28;20037;-79
2023/07/28 14:29:34;;;;;;;6.45;3.97;;;;;;;;;;5059784;28;20395;-79
2023/07/28 14:32:00;;;;;;;8.48;5.65;;;;;;;;;;5061352;28;20024;-79
2023/07/28 14:34:26;;;;;;;8.55;5.03;;;;;;;;;;5060281;28;20028;-79
2023/07/28 14:36:52;;;;;;;8.27;5.95;;;;;;;;;;5059007;28;20025;-79